Time;durP1;ratioP1;P1;durP2;ratioP2;P2;SDS_P1;SDS_P2;PMS_P1;PMS_P2;Temp;Humidity;BMP_temperature;BMP_pressure;BME280_temperature;BME280_humidity;BME280_pressure;Samples;Min_cycle;Max_cycle;Signal;HPM_P1;HPM_P2
2021/04/29 00:01:15;;;;;;;1.02;0.43;;;;;;;-142.37;100.00;59669.53;5074670;28;20101;-55
2021/04/29 00:03:41;;;;;;;1.23;0.30;;;;;;;-142.37;100.00;59669.53;5074762;28;20024;-55
2021/04/29 00:06:06;;;;;;;0.20;0.10;;;;;;;-142.37;100.00;59669.53;5074884;28;20495;-55
2021/04/29 00:08:33;;;;;;;0.85;0.20;;;;;;;-142.37;100.00;59669.53;5074627;28;20126;-56
2021/04/29 00:10:59;;;;;;;1.15;0.30;;;;;;;-142.37;100.00;59669.53;5075075;28;20402;-56
2021/04/29 00:13:24;;;;;;;0.88;0.30;;;;;;;-142.37;100.00;59669.53;5074374;28;20025;-55
2021/04/29 00:15:50;;;;;;;1.83;0.73;;;;;;;-142.37;100.00;59669.53;5074735;28;20028;-56
2021/04/29 00:18:15;;;;;;;1.08;0.50;;;;;;;-142.37;100.00;59669.53;5074719;28;20024;-55
2021/04/29 00:20:41;;;;;;;2.15;0.22;;;;;;;-142.37;100.00;59669.53;5074333;28;20483;-56
2021/04/29 00:23:07;;;;;;;0.85;0.30;;;;;;;-142.37;100.00;59669.53;5074539;28;20415;-55
2021/04/29 00:25:32;;;;;;;1.52;0.52;;;;;;;-142.37;100.00;59669.53;5074197;28;20024;-55
2021/04/29 00:27:57;;;;;;;0.85;0.40;;;;;;;-142.37;100.00;59669.53;5070477;28;20024;-56
2021/04/29 00:30:23;;;;;;;1.17;0.28;;;;;;;-142.37;100.00;59669.53;5054242;28;20040;-56
2021/04/29 00:32:48;;;;;;;1.30;0.38;;;;;;;-142.37;100.00;59669.53;5036794;28;20029;-55
2021/04/29 00:35:14;;;;;;;1.20;0.22;;;;;;;-142.37;100.00;59669.53;5054131;28;20111;-56
2021/04/29 00:37:39;;;;;;;1.63;0.35;;;;;;;-142.37;100.00;59669.53;5054067;28;20029;-55
2021/04/29 00:40:05;;;;;;;1.00;0.30;;;;;;;-142.37;100.00;59669.53;5036307;28;20032;-55
2021/04/29 00:42:30;;;;;;;0.85;0.30;;;;;;;-142.37;100.00;59669.53;5054012;28;20484;-55
2021/04/29 00:44:56;;;;;;;3.90;0.75;;;;;;;-142.37;100.00;59669.53;5054163;28;20025;-55
2021/04/29 00:47:21;;;;;;;0.57;0.35;;;;;;;-142.37;100.00;59669.53;5053835;28;20475;-55
2021/04/29 00:49:47;;;;;;;1.55;0.15;;;;;;;-142.37;100.00;59669.53;5053810;28;20021;-55
2021/04/29 00:52:12;;;;;;;0.75;0.32;;;;;;;-142.37;100.00;59669.53;5053921;28;20075;-55
2021/04/29 00:54:37;;;;;;;1.83;0.30;;;;;;;-142.37;100.00;59669.53;5053887;28;20063;-55
2021/04/29 00:57:03;;;;;;;2.03;0.70;;;;;;;-142.37;100.00;59669.53;5054243;28;20108;-55
2021/04/29 00:59:28;;;;;;;0.70;0.52;;;;;;;-142.37;100.00;59669.53;5053504;28;20017;-55
2021/04/29 01:02:04;;;;;;;0.65;0.28;;;;;;;-142.37;100.00;59669.53;5053843;28;20063;-56
2021/04/29 01:04:46;;;;;;;0.73;0.30;;;;;;;-142.37;100.00;59669.53;5053845;28;20071;-55
2021/04/29 01:07:15;;;;;;;1.17;0.30;;;;;;;-142.37;100.00;59669.53;5053600;28;20415;-56
2021/04/29 01:09:49;;;;;;;1.48;0.28;;;;;;;-142.37;100.00;59669.53;5052250;28;20460;-55
2021/04/29 01:12:46;;;;;;;;;;;;;;;-142.37;100.00;59669.53;5053978;28;20064;-55
2021/04/29 01:15:13;;;;;;;0.20;0.10;;;;;;;-142.37;100.00;59669.53;4991785;28;19916;-56
2021/04/29 01:17:41;;;;;;;1.02;0.52;;;;;;;-142.37;100.00;59669.53;4991692;28;20113;-56
2021/04/29 01:20:12;;;;;;;1.17;0.30;;;;;;;-142.37;100.00;59669.53;4991585;28;20089;-56
2021/04/29 01:22:43;;;;;;;1.60;0.40;;;;;;;-142.37;100.00;59669.53;4991607;28;20030;-55
2021/04/29 01:25:14;;;;;;;0.47;0.22;;;;;;;-142.37;100.00;59669.53;4991730;28;20121;-55
2021/04/29 01:27:41;;;;;;;0.95;0.30;;;;;;;-142.37;100.00;59669.53;4990104;28;20063;-55
2021/04/29 01:30:09;;;;;;;0.75;0.32;;;;;;;-142.37;100.00;59669.53;4972231;28;20039;-55
2021/04/29 01:32:36;;;;;;;1.52;0.50;;;;;;;-142.37;100.00;59669.53;4971891;28;20150;-55
2021/04/29 01:35:03;;;;;;;1.55;0.52;;;;;;;-142.37;100.00;59669.53;4972192;28;20514;-55
2021/04/29 01:37:29;;;;;;;0.85;0.40;;;;;;;-142.37;100.00;59669.53;4971678;28;20046;-55
2021/04/29 01:39:54;;;;;;;0.45;0.20;;;;;;;-142.37;100.00;59669.53;4972072;28;20035;-55
2021/04/29 01:42:20;;;;;;;0.28;0.15;;;;;;;-142.37;100.00;59669.53;4971859;28;20113;-55
2021/04/29 01:44:45;;;;;;;1.45;0.40;;;;;;;-142.37;100.00;59669.53;4971936;28;20062;-55
2021/04/29 01:47:11;;;;;;;0.28;0.20;;;;;;;-142.37;100.00;59669.53;4971932;28;20027;-55
2021/04/29 01:49:36;;;;;;;0.73;0.30;;;;;;;-142.37;100.00;59669.53;4972441;28;20534;-55
2021/04/29 01:52:02;;;;;;;1.30;0.22;;;;;;;-142.37;100.00;59669.53;5052963;28;20052;-55
2021/04/29 01:54:28;;;;;;;0.65;0.15;;;;;;;-142.37;100.00;59669.53;5052621;28;20021;-55
2021/04/29 01:56:53;;;;;;;1.17;0.40;;;;;;;-142.37;100.00;59669.53;5052816;28;20071;-55
2021/04/29 01:59:19;;;;;;;1.70;0.40;;;;;;;-142.37;100.00;59669.53;5052486;28;20150;-55
2021/04/29 02:01:45;;;;;;;0.50;0.20;;;;;;;-142.37;100.00;59669.53;5052554;28;20361;-56
2021/04/29 02:04:12;;;;;;;0.75;0.32;;;;;;;-142.37;100.00;59669.53;5052678;28;20055;-56
2021/04/29 02:06:41;;;;;;;1.75;0.50;;;;;;;-142.37;100.00;59669.53;5052609;28;20025;-56
2021/04/29 02:09:09;;;;;;;2.13;0.50;;;;;;;-142.37;100.00;59669.53;5052616;28;20503;-55
2021/04/29 02:11:38;;;;;;;2.42;0.30;;;;;;;-142.37;100.00;59669.53;5052404;28;20025;-56
2021/04/29 02:14:06;;;;;;;0.52;0.15;;;;;;;-142.37;100.00;59669.53;5052638;28;20498;-55
2021/04/29 02:16:43;;;;;;;0.75;0.20;;;;;;;-142.37;100.00;59669.53;5052754;28;20025;-56
2021/04/29 02:19:10;;;;;;;1.02;0.30;;;;;;;-142.37;100.00;59669.53;5052232;28;20469;-55
2021/04/29 02:21:40;;;;;;;1.15;0.40;;;;;;;-142.37;100.00;59669.53;5035007;28;20445;-56
2021/04/29 02:24:06;;;;;;;1.80;0.40;;;;;;;-142.37;100.00;59669.53;5052503;28;20025;-56
2021/04/29 02:26:32;;;;;;;1.33;0.35;;;;;;;-142.37;100.00;59669.53;5034312;28;20112;-55
2021/04/29 02:28:58;;;;;;;1.17;0.38;;;;;;;-142.37;100.00;59669.53;5052835;28;20065;-56
2021/04/29 02:31:23;;;;;;;0.50;0.20;;;;;;;-142.37;100.00;59669.53;5052156;28;20071;-55
2021/04/29 02:33:51;;;;;;;0.70;0.20;;;;;;;-142.37;100.00;59669.53;5052463;28;20021;-55
2021/04/29 02:36:17;;;;;;;0.90;0.40;;;;;;;-142.37;100.00;59669.53;5052169;28;20075;-55
2021/04/29 02:38:43;;;;;;;0.45;0.20;;;;;;;-142.37;100.00;59669.53;5052281;28;20028;-56
2021/04/29 02:41:09;;;;;;;0.77;0.38;;;;;;;-142.37;100.00;59669.53;5052239;28;20071;-55
2021/04/29 02:43:35;;;;;;;0.88;0.30;;;;;;;-142.37;100.00;59669.53;5052092;28;20029;-55
2021/04/29 02:46:01;;;;;;;1.27;0.30;;;;;;;-142.37;100.00;59669.53;5052331;28;20027;-55
2021/04/29 02:48:27;;;;;;;0.55;0.30;;;;;;;-142.37;100.00;59669.53;5051857;28;20033;-56
2021/04/29 02:50:53;;;;;;;2.60;0.40;;;;;;;-142.37;100.00;59669.53;5052354;28;20017;-56
2021/04/29 02:53:19;;;;;;;0.80;0.30;;;;;;;-142.37;100.00;59669.53;5052050;28;20033;-55
2021/04/29 02:55:46;;;;;;;1.75;0.45;;;;;;;-142.37;100.00;59669.53;5052119;28;20037;-55
2021/04/29 02:58:13;;;;;;;1.70;0.30;;;;;;;-142.37;100.00;59669.53;5052088;28;20041;-55
2021/04/29 03:00:40;;;;;;;1.38;0.30;;;;;;;-142.37;100.00;59669.53;5052060;28;20017;-55
2021/04/29 03:03:08;;;;;;;0.38;0.25;;;;;;;-142.37;100.00;59669.53;5054842;28;20537;-55
2021/04/29 03:05:35;;;;;;;1.10;0.50;;;;;;;-142.37;100.00;59669.53;5051977;28;20480;-55
2021/04/29 03:08:00;;;;;;;0.60;0.28;;;;;;;-142.37;100.00;59669.53;5036355;28;20457;-55
2021/04/29 03:10:26;;;;;;;0.55;0.20;;;;;;;-142.37;100.00;59669.53;5036059;28;20022;-55
2021/04/29 03:12:52;;;;;;;0.32;0.17;;;;;;;-142.37;100.00;59669.53;5036008;28;20103;-55
2021/04/29 03:15:18;;;;;;;1.63;0.20;;;;;;;-142.37;100.00;59669.53;5035601;28;20068;-55
2021/04/29 03:17:43;;;;;;;1.95;0.35;;;;;;;-142.37;100.00;59669.53;5035772;28;20513;-55
2021/04/29 03:20:09;;;;;;;0.50;0.20;;;;;;;-142.37;100.00;59669.53;5035498;28;20048;-56
2021/04/29 03:22:36;;;;;;;0.73;0.28;;;;;;;-142.37;100.00;59669.53;5035632;28;20100;-56
2021/04/29 03:25:02;;;;;;;1.48;0.50;;;;;;;-142.37;100.00;59669.53;5035779;28;20025;-55
2021/04/29 03:27:27;;;;;;;0.50;0.20;;;;;;;-142.37;100.00;59669.53;5035262;28;20472;-56
2021/04/29 03:29:53;;;;;;;1.20;0.22;;;;;;;-142.37;100.00;59669.53;5055331;28;20116;-55
2021/04/29 03:32:19;;;;;;;1.08;0.28;;;;;;;-142.37;100.00;59669.53;5055331;28;20024;-55
2021/04/29 03:34:45;;;;;;;1.10;0.20;;;;;;;-142.37;100.00;59669.53;5056009;28;20025;-55
2021/04/29 03:37:11;;;;;;;0.95;0.55;;;;;;;-142.37;100.00;59669.53;5055397;28;20028;-56
2021/04/29 03:39:36;;;;;;;2.20;0.30;;;;;;;-142.37;100.00;59669.53;5054975;28;20025;-56
2021/04/29 03:42:01;;;;;;;0.65;0.25;;;;;;;-142.37;100.00;59669.53;5055330;28;20498;-55
2021/04/29 03:44:27;;;;;;;1.70;0.40;;;;;;;-142.37;100.00;59669.53;5055030;28;20053;-56
2021/04/29 03:46:52;;;;;;;1.75;0.20;;;;;;;-142.37;100.00;59669.53;5037592;28;20021;-55
2021/04/29 03:49:18;;;;;;;1.65;0.38;;;;;;;-142.37;100.00;59669.53;5055063;28;20032;-55
2021/04/29 03:51:43;;;;;;;0.82;0.20;;;;;;;-142.37;100.00;59669.53;5055029;28;20044;-55
2021/04/29 03:54:09;;;;;;;2.05;0.30;;;;;;;-142.37;100.00;59669.53;5055074;28;20029;-55
2021/04/29 03:56:34;;;;;;;0.70;0.20;;;;;;;-142.37;100.00;59669.53;5058064;28;20071;-55
2021/04/29 03:58:59;;;;;;;0.65;0.38;;;;;;;-142.37;100.00;59669.53;5075082;28;20032;-56
2021/04/29 04:01:25;;;;;;;1.25;0.30;;;;;;;-142.37;100.00;59669.53;5074545;28;20024;-55
2021/04/29 04:03:50;;;;;;;1.13;0.13;;;;;;;-142.37;100.00;59669.53;5059766;28;20124;-55
2021/04/29 04:06:15;;;;;;;0.45;0.20;;;;;;;-142.37;100.00;59669.53;5054576;28;20024;-56
2021/04/29 04:08:40;;;;;;;1.85;0.20;;;;;;;-142.37;100.00;59669.53;5055105;28;20017;-55
2021/04/29 04:11:06;;;;;;;0.98;0.40;;;;;;;-142.37;100.00;59669.53;5054765;28;20100;-55
2021/04/29 04:13:31;;;;;;;0.70;0.30;;;;;;;-142.37;100.00;59669.53;5054130;28;20052;-55
2021/04/29 04:15:56;;;;;;;1.27;0.30;;;;;;;-142.37;100.00;59669.53;5054648;28;20027;-55
2021/04/29 04:18:22;;;;;;;1.55;0.50;;;;;;;-142.37;100.00;59669.53;5054452;28;20051;-56
2021/04/29 04:20:47;;;;;;;1.05;0.50;;;;;;;-142.37;100.00;59669.53;5054277;28;20535;-55
2021/04/29 04:23:13;;;;;;;0.85;0.20;;;;;;;-142.37;100.00;59669.53;5054477;28;20123;-55
2021/04/29 04:25:38;;;;;;;0.75;0.20;;;;;;;-142.37;100.00;59669.53;5054320;28;20475;-55
2021/04/29 04:28:03;;;;;;;0.43;0.10;;;;;;;-142.37;100.00;59669.53;5054438;28;20050;-56
2021/04/29 04:30:30;;;;;;;0.75;0.17;;;;;;;-142.37;100.00;59669.53;5054264;28;20524;-55
2021/04/29 04:32:55;;;;;;;1.50;0.40;;;;;;;-142.37;100.00;59669.53;5055007;28;20029;-55
2021/04/29 04:35:21;;;;;;;0.57;0.25;;;;;;;-142.37;100.00;59669.53;5073788;28;20028;-55
2021/04/29 04:37:46;;;;;;;1.73;0.40;;;;;;;-142.37;100.00;59669.53;5074216;28;20039;-55
2021/04/29 04:40:13;;;;;;;0.20;0.17;;;;;;;-142.37;100.00;59669.53;5056202;28;20020;-56
2021/04/29 04:42:39;;;;;;;0.35;0.15;;;;;;;-142.37;100.00;59669.53;5074113;28;20036;-56
2021/04/29 04:45:06;;;;;;;0.75;0.20;;;;;;;-142.37;100.00;59669.53;5074175;28;20028;-55
2021/04/29 04:47:31;;;;;;;1.13;0.30;;;;;;;-142.37;100.00;59669.53;5073852;28;20032;-55
2021/04/29 04:49:56;;;;;;;0.60;0.13;;;;;;;-142.37;100.00;59669.53;5073747;28;20028;-55
2021/04/29 04:52:22;;;;;;;0.50;0.30;;;;;;;-142.37;100.00;59669.53;5073833;28;20431;-55
2021/04/29 04:54:49;;;;;;;0.30;0.20;;;;;;;-142.37;100.00;59669.53;5073929;28;20035;-55
2021/04/29 04:57:15;;;;;;;0.88;0.10;;;;;;;-142.37;100.00;59669.53;5055862;28;20020;-56
2021/04/29 04:59:40;;;;;;;0.43;0.17;;;;;;;-142.37;100.00;59669.53;5073625;28;20021;-56
2021/04/29 05:02:06;;;;;;;0.45;0.15;;;;;;;-142.37;100.00;59669.53;5073823;28;20578;-56
2021/04/29 05:04:33;;;;;;;1.17;0.38;;;;;;;-142.37;100.00;59669.53;5073591;28;20032;-56
2021/04/29 05:06:59;;;;;;;0.50;0.10;;;;;;;-142.37;100.00;59669.53;5073719;28;20077;-55
2021/04/29 05:09:24;;;;;;;0.82;0.20;;;;;;;-142.37;100.00;59669.53;5073389;28;20364;-55
2021/04/29 05:11:49;;;;;;;1.30;0.50;;;;;;;-142.37;100.00;59669.53;5073847;28;20062;-56
2021/04/29 05:14:15;;;;;;;0.45;0.30;;;;;;;-142.37;100.00;59669.53;5073494;28;20032;-55
2021/04/29 05:16:40;;;;;;;2.22;0.35;;;;;;;-142.37;100.00;59669.53;5073720;28;20468;-55
2021/04/29 05:19:06;;;;;;;1.50;0.40;;;;;;;-142.37;100.00;59669.53;5073303;28;20033;-55
2021/04/29 05:21:31;;;;;;;0.70;0.30;;;;;;;-142.37;100.00;59669.53;5073331;28;20412;-56
2021/04/29 05:23:57;;;;;;;0.15;0.08;;;;;;;-142.37;100.00;59669.53;5073206;28;20029;-56
2021/04/29 05:26:22;;;;;;;2.20;0.40;;;;;;;-142.37;100.00;59669.53;5072619;28;20016;-56
2021/04/29 05:28:47;;;;;;;1.20;0.28;;;;;;;-142.37;100.00;59669.53;5062504;28;20057;-56
2021/04/29 05:31:12;;;;;;;0.40;0.10;;;;;;;-142.37;100.00;59669.53;5053169;28;20075;-56
2021/04/29 05:33:38;;;;;;;0.30;0.17;;;;;;;-142.37;100.00;59669.53;5053353;28;20055;-56
2021/04/29 05:36:03;;;;;;;0.65;0.30;;;;;;;-142.37;100.00;59669.53;5053187;28;20464;-56
2021/04/29 05:38:29;;;;;;;0.30;0.10;;;;;;;-142.37;100.00;59669.53;5052865;28;20031;-56
2021/04/29 05:40:54;;;;;;;0.65;0.30;;;;;;;-142.37;100.00;59669.53;5053078;28;20028;-56
2021/04/29 05:43:19;;;;;;;0.52;0.22;;;;;;;-142.37;100.00;59669.53;5052829;28;20059;-56
2021/04/29 05:45:44;;;;;;;0.10;0.10;;;;;;;-142.37;100.00;59669.53;5052953;28;20028;-56
2021/04/29 05:48:10;;;;;;;0.80;0.20;;;;;;;-142.37;100.00;59669.53;5052920;28;20040;-56
2021/04/29 05:50:35;;;;;;;0.30;0.17;;;;;;;-142.37;100.00;59669.53;5052889;28;20024;-55
2021/04/29 05:53:01;;;;;;;0.90;0.20;;;;;;;-142.37;100.00;59669.53;5052941;28;20075;-56
2021/04/29 05:55:26;;;;;;;0.77;0.30;;;;;;;-142.37;100.00;59669.53;5053126;28;20021;-56
2021/04/29 05:57:54;;;;;;;1.63;0.20;;;;;;;-142.37;100.00;59669.53;5053174;28;20358;-55
2021/04/29 06:00:20;;;;;;;1.23;0.30;;;;;;;-142.37;100.00;59669.53;5052443;28;20017;-56
2021/04/29 06:02:46;;;;;;;0.60;0.10;;;;;;;-142.37;100.00;59669.53;5052697;28;20029;-56
2021/04/29 06:05:12;;;;;;;0.95;0.10;;;;;;;-142.37;100.00;59669.53;5052626;28;20431;-56
2021/04/29 06:07:37;;;;;;;0.60;0.10;;;;;;;-142.37;100.00;59669.53;5060716;28;20016;-56
2021/04/29 06:10:03;;;;;;;1.50;0.30;;;;;;;-142.37;100.00;59669.53;5072139;28;20194;-56
2021/04/29 06:12:28;;;;;;;1.17;0.20;;;;;;;-142.37;100.00;59669.53;5072317;28;20491;-56
2021/04/29 06:14:53;;;;;;;0.30;0.20;;;;;;;-142.37;100.00;59669.53;5067956;28;20478;-55
2021/04/29 06:17:19;;;;;;;1.25;0.20;;;;;;;-142.37;100.00;59669.53;5050765;28;20055;-56
2021/04/29 06:19:44;;;;;;;0.65;0.20;;;;;;;-142.37;100.00;59669.53;5051565;28;20103;-55
2021/04/29 06:22:09;;;;;;;1.10;0.20;;;;;;;-142.37;100.00;59669.53;5052002;28;20029;-55
2021/04/29 06:24:35;;;;;;;0.30;0.13;;;;;;;-142.37;100.00;59669.53;5051950;28;20063;-55
2021/04/29 06:27:00;;;;;;;0.93;0.20;;;;;;;-142.37;100.00;59669.53;5051702;28;20104;-56
2021/04/29 06:29:26;;;;;;;1.05;0.38;;;;;;;-142.37;100.00;59669.53;5034125;28;20025;-55
2021/04/29 06:31:51;;;;;;;1.10;0.32;;;;;;;-142.37;100.00;59669.53;5050990;28;20033;-56
2021/04/29 06:34:17;;;;;;;1.33;0.30;;;;;;;-142.37;100.00;59669.53;5047655;28;20029;-55
2021/04/29 06:36:42;;;;;;;0.45;0.20;;;;;;;-142.37;100.00;59669.53;5054332;28;20166;-55
2021/04/29 06:39:07;;;;;;;0.45;0.20;;;;;;;-142.37;100.00;59669.53;5056183;28;20036;-55
2021/04/29 06:41:33;;;;;;;1.05;0.20;;;;;;;-142.37;100.00;59669.53;5048992;28;20021;-56
2021/04/29 06:43:58;;;;;;;1.08;0.20;;;;;;;-142.37;100.00;59669.53;5052464;28;20021;-56
2021/04/29 06:46:24;;;;;;;1.08;0.20;;;;;;;-142.37;100.00;59669.53;5054906;28;20036;-55
2021/04/29 06:48:49;;;;;;;0.90;0.10;;;;;;;-142.37;100.00;59669.53;5053225;28;20115;-55
2021/04/29 06:51:14;;;;;;;1.35;0.68;;;;;;;-142.37;100.00;59669.53;5055001;28;20112;-56
2021/04/29 06:53:39;;;;;;;1.15;0.45;;;;;;;-142.37;100.00;59669.53;5051031;28;20013;-56
2021/04/29 06:56:05;;;;;;;0.50;0.20;;;;;;;-142.37;100.00;59669.53;5062717;28;20479;-56
2021/04/29 06:58:31;;;;;;;0.40;0.30;;;;;;;-142.37;100.00;59669.53;5056559;28;20456;-56
2021/04/29 07:00:57;;;;;;;1.13;0.43;;;;;;;-142.37;100.00;59669.53;5049984;28;20032;-56
2021/04/29 07:03:22;;;;;;;1.63;0.40;;;;;;;-142.37;100.00;59669.53;5051843;28;20061;-56
2021/04/29 07:05:48;;;;;;;1.40;0.22;;;;;;;-142.37;100.00;59669.53;5050584;28;20056;-56
2021/04/29 07:08:14;;;;;;;0.40;0.20;;;;;;;-142.37;100.00;59669.53;5049598;28;20032;-56
2021/04/29 07:10:40;;;;;;;1.50;0.43;;;;;;;-142.37;100.00;59669.53;5049113;28;20024;-56
2021/04/29 07:13:06;;;;;;;1.90;0.32;;;;;;;-142.37;100.00;59669.53;5049680;28;20025;-56
2021/04/29 07:15:31;;;;;;;0.82;0.63;;;;;;;-142.37;100.00;59669.53;5054777;28;20035;-56
2021/04/29 07:17:58;;;;;;;0.35;0.20;;;;;;;-142.37;100.00;59669.53;5055248;28;20480;-56
2021/04/29 07:20:23;;;;;;;1.58;0.45;;;;;;;-142.37;100.00;59669.53;5047992;28;20037;-56
2021/04/29 07:22:48;;;;;;;0.80;0.30;;;;;;;-142.37;100.00;59669.53;5033293;28;20040;-56
2021/04/29 07:25:14;;;;;;;0.25;0.13;;;;;;;-142.37;100.00;59669.53;5050953;28;20025;-56
2021/04/29 07:27:39;;;;;;;0.57;0.28;;;;;;;-142.37;100.00;59669.53;5033467;28;20516;-56
2021/04/29 07:30:05;;;;;;;0.10;0.10;;;;;;;-142.37;100.00;59669.53;5036863;28;20021;-56
2021/04/29 07:32:30;;;;;;;0.93;0.40;;;;;;;-142.37;100.00;59669.53;5033896;28;20071;-56
2021/04/29 07:34:57;;;;;;;1.08;0.20;;;;;;;-142.37;100.00;59669.53;5052057;28;20033;-56
2021/04/29 07:37:23;;;;;;;0.95;0.35;;;;;;;-142.37;100.00;59669.53;5040122;28;20036;-56
2021/04/29 07:39:48;;;;;;;0.98;0.30;;;;;;;-142.37;100.00;59669.53;5038638;28;20030;-56
2021/04/29 07:42:13;;;;;;;0.80;0.32;;;;;;;-142.37;100.00;59669.53;5034449;28;20033;-56
2021/04/29 07:44:39;;;;;;;1.38;0.43;;;;;;;-142.37;100.00;59669.53;5033582;28;20053;-56
2021/04/29 07:47:04;;;;;;;0.50;0.30;;;;;;;-142.37;100.00;59669.53;5033312;28;20109;-57
2021/04/29 07:49:30;;;;;;;1.70;0.47;;;;;;;-142.37;100.00;59669.53;5032416;28;20036;-56
2021/04/29 07:51:56;;;;;;;0.40;0.17;;;;;;;-142.37;100.00;59669.53;5040421;28;20033;-56
2021/04/29 07:54:21;;;;;;;0.38;0.30;;;;;;;-142.37;100.00;59669.53;5052483;28;20078;-56
2021/04/29 07:56:46;;;;;;;1.02;0.20;;;;;;;-142.37;100.00;59669.53;5053681;28;20021;-56
2021/04/29 07:59:12;;;;;;;0.88;0.22;;;;;;;-142.37;100.00;59669.53;5053826;28;20071;-56
2021/04/29 08:01:38;;;;;;;0.93;0.20;;;;;;;-142.37;100.00;59669.53;5054573;28;20032;-56
2021/04/29 08:04:03;;;;;;;1.90;0.30;;;;;;;-142.37;100.00;59669.53;5052596;28;20392;-56
2021/04/29 08:06:29;;;;;;;1.40;0.40;;;;;;;-142.37;100.00;59669.53;5053432;28;20029;-55
2021/04/29 08:08:55;;;;;;;0.20;0.20;;;;;;;-142.37;100.00;59669.53;5054046;28;20104;-55
2021/04/29 08:11:20;;;;;;;0.52;0.20;;;;;;;-142.37;100.00;59669.53;5049473;28;20104;-56
2021/04/29 08:13:46;;;;;;;0.40;0.20;;;;;;;-142.37;100.00;59669.53;5048227;28;20386;-56
2021/04/29 08:16:11;;;;;;;1.52;0.20;;;;;;;-142.37;100.00;59669.53;5041625;28;20422;-56
2021/04/29 08:18:37;;;;;;;0.32;0.20;;;;;;;-142.37;100.00;59669.53;5034116;28;20053;-56
2021/04/29 08:21:04;;;;;;;0.30;0.10;;;;;;;-142.37;100.00;59669.53;5034636;28;20048;-56
2021/04/29 08:23:30;;;;;;;0.30;0.20;;;;;;;-142.37;100.00;59669.53;5048151;28;20047;-56
2021/04/29 08:25:55;;;;;;;1.42;0.20;;;;;;;-142.37;100.00;59669.53;5052442;28;20016;-56
2021/04/29 08:28:20;;;;;;;0.90;0.57;;;;;;;-142.37;100.00;59669.53;5052283;28;20064;-56
2021/04/29 08:30:45;;;;;;;1.60;0.50;;;;;;;-142.37;100.00;59669.53;5050100;28;20414;-56
2021/04/29 08:33:11;;;;;;;1.02;0.40;;;;;;;-142.37;100.00;59669.53;5044811;28;20524;-56
2021/04/29 08:35:36;;;;;;;0.90;0.20;;;;;;;-142.37;100.00;59669.53;5053686;28;20021;-56
2021/04/29 08:38:01;;;;;;;2.05;0.40;;;;;;;-142.37;100.00;59669.53;5054110;28;20025;-56
2021/04/29 08:40:29;;;;;;;1.45;0.43;;;;;;;-142.37;100.00;59669.53;5050046;28;20032;-55
2021/04/29 08:42:54;;;;;;;0.50;0.20;;;;;;;-142.37;100.00;59669.53;5038760;28;20148;-56
2021/04/29 08:45:20;;;;;;;0.30;0.10;;;;;;;-142.37;100.00;59669.53;5044974;28;20108;-55
2021/04/29 08:47:54;;;;;;;0.30;0.10;;;;;;;-142.37;100.00;59669.53;5038649;28;20124;-56
2021/04/29 08:50:21;;;;;;;0.65;0.20;;;;;;;-142.37;100.00;59669.53;5047549;28;20503;-55
2021/04/29 08:52:46;;;;;;;2.30;0.75;;;;;;;-142.37;100.00;59669.53;5040059;28;20038;-55
2021/04/29 08:55:19;;;;;;;0.55;0.30;;;;;;;-142.37;100.00;59669.53;5044802;28;20060;-56
2021/04/29 08:57:45;;;;;;;2.83;0.35;;;;;;;-142.37;100.00;59669.53;5042383;28;20029;-56
2021/04/29 09:00:12;;;;;;;0.50;0.22;;;;;;;-142.37;100.00;59669.53;5046506;28;20051;-56
2021/04/29 09:02:38;;;;;;;0.88;0.35;;;;;;;-142.37;100.00;59669.53;5022315;28;20017;-56
2021/04/29 09:05:16;;;;;;;1.88;0.22;;;;;;;-142.37;100.00;59669.53;5040973;28;20121;-56
2021/04/29 09:08:06;;;;;;;0.40;0.28;;;;;;;-142.37;100.00;59669.53;5047939;28;20096;-56
2021/04/29 09:10:35;;;;;;;1.23;0.30;;;;;;;-142.37;100.00;59669.53;5042124;28;20468;-56
2021/04/29 09:13:19;;;;;;;0.73;0.55;;;;;;;-142.37;100.00;59669.53;5037605;28;20060;-56
2021/04/29 09:15:45;;;;;;;0.10;0.10;;;;;;;-142.37;100.00;59669.53;5042870;28;20184;-56
2021/04/29 09:18:18;;;;;;;0.82;0.30;;;;;;;-142.37;100.00;59669.53;5041733;28;20037;-56
2021/04/29 09:21:19;;;;;;;1.08;0.35;;;;;;;-142.37;100.00;59669.53;5050808;28;20071;-55
2021/04/29 09:23:50;;;;;;;0.73;0.40;;;;;;;-142.37;100.00;59669.53;5001868;28;20038;-55
2021/04/29 09:26:18;;;;;;;0.65;0.20;;;;;;;-142.37;100.00;59669.53;4984228;28;20422;-56
2021/04/29 09:28:48;;;;;;;0.30;0.25;;;;;;;-142.37;100.00;59669.53;4980444;28;20022;-55
2021/04/29 09:31:17;;;;;;;1.10;0.20;;;;;;;-142.37;100.00;59669.53;4986453;28;20057;-56
2021/04/29 09:33:48;;;;;;;0.57;0.20;;;;;;;-142.37;100.00;59669.53;4994782;28;20030;-55
2021/04/29 09:36:22;;;;;;;0.73;0.30;;;;;;;-142.37;100.00;59669.53;4993161;28;20022;-55
2021/04/29 09:39:05;;;;;;;0.95;0.20;;;;;;;-142.37;100.00;59669.53;4988311;28;20109;-56
2021/04/29 09:41:47;;;;;;;0.85;0.20;;;;;;;-142.37;100.00;59669.53;4991008;28;20398;-56
2021/04/29 09:44:15;;;;;;;0.60;0.20;;;;;;;-142.37;100.00;59669.53;4990352;28;20430;-55
2021/04/29 09:47:03;;;;;;;1.02;0.20;;;;;;;-142.37;100.00;59669.53;4994744;28;20528;-56
2021/04/29 09:49:38;;;;;;;1.77;0.32;;;;;;;-142.37;100.00;59669.53;4993987;28;20526;-55
2021/04/29 09:52:16;;;;;;;0.95;0.20;;;;;;;-142.37;100.00;59669.53;4998205;28;20410;-55
2021/04/29 09:54:42;;;;;;;1.63;0.65;;;;;;;-142.37;100.00;59669.53;4999063;28;20033;-55
2021/04/29 09:57:12;;;;;;;0.17;0.10;;;;;;;-142.37;100.00;59669.53;5012350;28;20042;-56
2021/04/29 09:59:41;;;;;;;0.77;0.22;;;;;;;-142.37;100.00;59669.53;5037275;28;20027;-55
2021/04/29 10:02:09;;;;;;;0.45;0.10;;;;;;;-142.37;100.00;59669.53;5044292;28;20031;-56
2021/04/29 10:04:38;;;;;;;0.75;0.30;;;;;;;-142.37;100.00;59669.53;5042861;28;20036;-56
2021/04/29 10:07:03;;;;;;;1.10;0.30;;;;;;;-142.37;100.00;59669.53;5043654;28;20032;-56
2021/04/29 10:09:30;;;;;;;0.73;0.30;;;;;;;-142.37;100.00;59669.53;5047591;28;20029;-56
2021/04/29 10:12:09;;;;;;;1.15;0.28;;;;;;;-142.37;100.00;59669.53;5050287;28;20032;-56
2021/04/29 10:14:43;;;;;;;1.02;0.28;;;;;;;-142.37;100.00;59669.53;5051898;28;20524;-56
2021/04/29 10:17:10;;;;;;;0.85;0.30;;;;;;;-142.37;100.00;59669.53;5044479;28;20038;-56
2021/04/29 10:19:39;;;;;;;0.75;0.20;;;;;;;-142.37;100.00;59669.53;5036238;28;20045;-56
2021/04/29 10:22:07;;;;;;;0.70;0.17;;;;;;;-142.37;100.00;59669.53;5032156;28;20053;-56
2021/04/29 10:24:34;;;;;;;0.68;0.20;;;;;;;-142.37;100.00;59669.53;5031574;28;20033;-56
2021/04/29 10:27:02;;;;;;;1.08;0.30;;;;;;;-142.37;100.00;59669.53;5045917;28;20027;-56
2021/04/29 10:29:27;;;;;;;0.45;0.20;;;;;;;-142.37;100.00;59669.53;5048599;28;20099;-56
2021/04/29 10:31:58;;;;;;;0.68;0.15;;;;;;;-142.37;100.00;59669.53;5050835;28;20119;-56
2021/04/29 10:34:24;;;;;;;0.20;0.10;;;;;;;-142.37;100.00;59669.53;5049953;28;20096;-58
2021/04/29 10:36:50;;;;;;;0.13;0.10;;;;;;;-142.37;100.00;59669.53;5030737;28;20120;-58
2021/04/29 10:39:18;;;;;;;0.73;0.30;;;;;;;-142.37;100.00;59669.53;5051463;28;20028;-58
2021/04/29 10:41:45;;;;;;;1.00;0.25;;;;;;;-142.37;100.00;59669.53;5050108;28;20292;-56
2021/04/29 10:44:14;;;;;;;0.60;0.20;;;;;;;-142.37;100.00;59669.53;5046473;28;20448;-57
2021/04/29 10:46:41;;;;;;;0.22;0.20;;;;;;;-142.37;100.00;59669.53;5040477;28;20032;-57
2021/04/29 10:49:08;;;;;;;1.23;0.20;;;;;;;-142.37;100.00;59669.53;5047046;28;20104;-58
2021/04/29 10:51:38;;;;;;;1.13;0.30;;;;;;;-142.37;100.00;59669.53;5037159;28;20130;-57
2021/04/29 10:54:13;;;;;;;1.05;0.50;;;;;;;-142.37;100.00;59669.53;5047253;28;20066;-56
2021/04/29 10:56:40;;;;;;;0.80;0.35;;;;;;;-142.37;100.00;59669.53;5049755;28;20048;-56
2021/04/29 10:59:12;;;;;;;1.33;0.40;;;;;;;-142.37;100.00;59669.53;5032181;28;20468;-56
2021/04/29 11:01:39;;;;;;;0.88;0.20;;;;;;;-142.37;100.00;59669.53;5051140;28;20021;-56
2021/04/29 11:04:16;;;;;;;1.42;0.40;;;;;;;-142.37;100.00;59669.53;5051435;28;20037;-56
2021/04/29 11:06:41;;;;;;;0.73;0.20;;;;;;;-142.37;100.00;59669.53;5051185;28;20120;-56
2021/04/29 11:09:19;;;;;;;1.63;0.50;;;;;;;-142.37;100.00;59669.53;5051044;28;20052;-57